createdAt,value
2018-12-13T00:01:49.516Z,12.70
2018-12-13T00:04:17.878Z,14.90
2018-12-13T00:06:46.259Z,13.93
2018-12-13T00:09:14.624Z,13.43
2018-12-13T00:11:43.023Z,15.57
2018-12-13T00:14:11.395Z,14.90
2018-12-13T00:16:39.776Z,17.30
2018-12-13T00:19:08.152Z,20.83
2018-12-13T00:21:36.652Z,23.30
2018-12-13T00:24:05.018Z,25.53
2018-12-13T00:26:33.408Z,17.17
2018-12-13T00:29:01.764Z,14.10
2018-12-13T00:31:30.148Z,15.97
2018-12-13T00:33:58.538Z,13.30
2018-12-13T00:36:26.931Z,14.63
2018-12-13T00:38:55.311Z,12.00
2018-12-13T00:41:23.761Z,11.43
2018-12-13T00:43:52.207Z,10.87
2018-12-13T00:46:20.601Z,10.53
2018-12-13T00:48:48.970Z,11.00
2018-12-13T00:51:17.496Z,9.83
2018-12-13T00:53:45.877Z,11.27
2018-12-13T00:56:14.266Z,11.63
2018-12-13T00:58:42.635Z,10.13
2018-12-13T01:01:11.035Z,13.17
2018-12-13T01:03:39.415Z,11.40
2018-12-13T01:06:07.815Z,11.70
2018-12-13T01:08:36.218Z,12.50
2018-12-13T01:11:04.637Z,10.13
2018-12-13T01:13:33.012Z,10.37
2018-12-13T01:16:01.405Z,12.93
2018-12-13T01:18:29.804Z,12.33
2018-12-13T01:20:58.205Z,13.40
2018-12-13T01:23:26.577Z,15.37
2018-12-13T01:25:54.972Z,13.13
2018-12-13T01:28:23.416Z,18.10
2018-12-13T01:30:51.876Z,18.13
2018-12-13T01:33:20.260Z,12.77
2018-12-13T01:35:48.659Z,14.13
2018-12-13T01:38:17.140Z,13.70
2018-12-13T01:40:45.644Z,15.17
2018-12-13T01:43:14.021Z,13.13
2018-12-13T01:45:42.411Z,15.33
2018-12-13T01:48:10.793Z,14.40
2018-12-13T01:50:39.159Z,16.97
2018-12-13T01:53:07.552Z,13.50
2018-12-13T01:55:35.934Z,15.10
2018-12-13T01:58:04.340Z,23.60
2018-12-13T02:00:32.720Z,15.40
2018-12-13T02:03:01.116Z,16.97
2018-12-13T02:05:29.491Z,16.20
2018-12-13T02:07:57.884Z,13.97
2018-12-13T02:10:26.252Z,14.73
2018-12-13T02:12:54.627Z,15.07
2018-12-13T02:27:09.659Z,14.27
2018-12-13T02:29:38.056Z,14.73
2018-12-13T02:32:06.476Z,15.87
2018-12-13T02:34:34.860Z,14.87
2018-12-13T02:37:06.263Z,13.87
2018-12-13T02:39:33.785Z,16.27
2018-12-13T02:42:02.171Z,20.67
2018-12-13T02:44:30.547Z,16.27
2018-12-13T02:46:58.949Z,17.47
2018-12-13T02:49:27.327Z,19.10
2018-12-13T02:51:55.731Z,20.67
2018-12-13T02:54:24.111Z,17.90
2018-12-13T02:56:52.523Z,16.17
2018-12-13T02:59:20.921Z,14.60
2018-12-13T03:01:49.325Z,16.90
2018-12-13T03:04:17.910Z,20.57
2018-12-13T03:06:46.307Z,16.93
2018-12-13T03:09:14.700Z,18.77
2018-12-13T03:11:43.117Z,15.33
2018-12-13T03:14:11.495Z,17.30
2018-12-13T03:16:39.895Z,20.03
2018-12-13T03:19:08.272Z,19.77
2018-12-13T03:21:36.670Z,21.00
2018-12-13T03:24:05.064Z,14.83
2018-12-13T03:26:33.455Z,18.73
2018-12-13T03:29:01.857Z,15.47
2018-12-13T03:31:30.369Z,17.40
2018-12-13T03:33:58.777Z,17.73
2018-12-13T03:36:27.177Z,15.23
2018-12-13T03:38:55.564Z,14.03
2018-12-13T03:41:23.968Z,18.93
2018-12-13T03:43:52.335Z,15.40
2018-12-13T03:46:20.749Z,14.70
2018-12-13T03:48:49.133Z,14.93
2018-12-13T03:51:17.521Z,14.77
2018-12-13T03:53:46.045Z,14.93
2018-12-13T03:56:14.435Z,17.43
2018-12-13T03:58:42.849Z,18.23
2018-12-13T04:01:11.236Z,15.13
2018-12-13T04:03:39.639Z,18.70
2018-12-13T04:06:08.346Z,19.00
2018-12-13T04:08:36.743Z,17.30
2018-12-13T04:11:05.131Z,16.70
2018-12-13T04:13:33.539Z,18.53
2018-12-13T04:16:02.047Z,17.73
2018-12-13T04:18:30.445Z,16.20
2018-12-13T04:20:58.824Z,17.87
2018-12-13T04:23:27.221Z,17.47
2018-12-13T04:25:55.604Z,19.23
2018-12-13T04:28:24.006Z,18.80
2018-12-13T04:30:52.392Z,15.97
2018-12-13T04:33:20.815Z,17.23
2018-12-13T04:35:49.298Z,17.77
2018-12-13T04:38:17.699Z,17.23
2018-12-13T04:40:46.082Z,20.80
2018-12-13T04:43:14.481Z,17.77
2018-12-13T04:45:42.859Z,21.40
2018-12-13T04:48:11.248Z,17.13
2018-12-13T04:50:39.627Z,19.10
2018-12-13T04:53:08.018Z,18.07
2018-12-13T04:55:36.385Z,17.37
2018-12-13T04:58:04.772Z,18.83
2018-12-13T05:00:33.124Z,16.70
2018-12-13T05:03:01.503Z,19.07
2018-12-13T05:05:29.880Z,20.73
2018-12-13T05:07:58.271Z,18.93
2018-12-13T05:10:37.781Z,18.47
2018-12-13T05:13:06.174Z,19.20
2018-12-13T05:15:34.531Z,18.90
2018-12-13T05:18:02.913Z,21.40
2018-12-13T05:20:31.276Z,20.60
2018-12-13T05:22:59.659Z,19.70
2018-12-13T05:25:28.027Z,21.00
2018-12-13T05:27:56.415Z,14.87
2018-12-13T05:30:24.887Z,18.37
2018-12-13T05:32:53.297Z,16.63
2018-12-13T05:35:21.676Z,17.60
2018-12-13T05:37:50.219Z,18.57
2018-12-13T05:40:18.621Z,18.97
2018-12-13T05:42:47.011Z,22.57
2018-12-13T05:45:15.409Z,19.37
2018-12-13T05:47:43.811Z,17.30
2018-12-13T05:50:12.308Z,16.83
2018-12-13T05:52:40.699Z,17.73
2018-12-13T05:55:09.181Z,17.43
2018-12-13T05:57:37.547Z,14.40
2018-12-13T06:00:06.758Z,17.23
2018-12-13T06:02:35.148Z,16.77
2018-12-13T06:05:03.855Z,19.30
2018-12-13T06:07:32.231Z,15.83
2018-12-13T06:10:00.642Z,18.47
2018-12-13T06:12:29.032Z,18.07
2018-12-13T06:14:57.447Z,16.27
2018-12-13T06:17:25.815Z,18.70
2018-12-13T06:19:54.189Z,21.80
2018-12-13T06:22:22.560Z,21.30
2018-12-13T06:24:50.950Z,16.13
2018-12-13T06:27:19.334Z,20.77
2018-12-13T06:29:49.006Z,19.77
2018-12-13T06:32:17.544Z,21.77
2018-12-13T06:34:45.935Z,19.43
2018-12-13T06:37:14.321Z,22.50
2018-12-13T06:39:42.711Z,17.50
2018-12-13T06:42:11.075Z,17.90
2018-12-13T06:44:39.477Z,17.30
2018-12-13T06:47:08.127Z,19.50
2018-12-13T06:49:36.536Z,18.50
2018-12-13T06:52:04.920Z,19.73
2018-12-13T06:54:33.327Z,20.10
2018-12-13T06:57:01.832Z,20.77
2018-12-13T06:59:30.233Z,19.10
2018-12-13T07:01:58.600Z,19.77
2018-12-13T07:04:26.983Z,19.80
2018-12-13T07:06:55.359Z,21.87
2018-12-13T07:09:23.743Z,20.93
2018-12-13T07:11:52.124Z,20.93
2018-12-13T07:14:20.517Z,19.37
2018-12-13T07:16:48.885Z,17.30
2018-12-13T07:19:17.282Z,20.90
2018-12-13T07:21:45.657Z,22.97
2018-12-13T07:24:14.059Z,23.10
2018-12-13T07:26:42.596Z,20.00
2018-12-13T07:29:11.003Z,20.83
2018-12-13T07:31:39.388Z,21.67
2018-12-13T07:34:07.792Z,19.03
2018-12-13T07:36:36.165Z,19.10
2018-12-13T07:39:08.863Z,25.90
2018-12-13T07:41:37.366Z,21.13
2018-12-13T07:44:05.771Z,23.67
2018-12-13T07:46:34.235Z,17.07
2018-12-13T07:49:02.611Z,20.53
2018-12-13T07:51:31.309Z,22.97
2018-12-13T07:53:59.900Z,25.73
2018-12-13T07:56:29.274Z,23.50
2018-12-13T07:58:57.812Z,21.83
2018-12-13T08:01:26.249Z,22.87
2018-12-13T08:03:54.632Z,26.43
2018-12-13T08:06:23.028Z,19.60
2018-12-13T08:08:51.404Z,17.57
2018-12-13T08:11:19.807Z,21.87
2018-12-13T08:13:48.316Z,21.37
2018-12-13T08:16:16.704Z,22.97
2018-12-13T08:18:45.082Z,22.93
2018-12-13T08:21:13.483Z,20.57
2018-12-13T08:23:41.862Z,21.70
2018-12-13T08:26:10.267Z,22.67
2018-12-13T08:28:38.635Z,18.27
2018-12-13T08:31:07.037Z,19.90
2018-12-13T08:33:35.511Z,20.67
2018-12-13T08:36:04.019Z,21.83
2018-12-13T08:38:32.384Z,20.10
2018-12-13T08:41:00.782Z,21.60
2018-12-13T08:43:29.161Z,22.70
2018-12-13T08:45:57.672Z,20.20
2018-12-13T08:48:26.039Z,24.00
2018-12-13T08:50:54.441Z,22.97
2018-12-13T08:53:22.927Z,23.07
2018-12-13T08:55:51.330Z,20.07
2018-12-13T08:58:19.697Z,21.60
2018-12-13T09:00:48.116Z,23.10
2018-12-13T09:03:16.495Z,23.47
2018-12-13T09:05:44.888Z,21.70
2018-12-13T09:08:13.262Z,25.87
2018-12-13T09:10:41.660Z,20.97
2018-12-13T09:13:10.044Z,21.43
2018-12-13T09:15:38.440Z,24.60
2018-12-13T09:18:06.941Z,24.60
2018-12-13T09:20:35.320Z,27.10
2018-12-13T09:23:03.705Z,20.63
2018-12-13T09:25:32.092Z,21.17
2018-12-13T09:28:00.459Z,21.63
2018-12-13T09:30:28.834Z,22.67
2018-12-13T09:32:57.208Z,24.63
2018-12-13T09:35:25.587Z,23.07
2018-12-13T09:37:53.964Z,24.80
2018-12-13T09:40:22.343Z,22.20
2018-12-13T09:42:50.727Z,23.70
2018-12-13T09:45:19.148Z,24.00
2018-12-13T09:47:47.532Z,23.07
2018-12-13T09:50:15.924Z,23.40
2018-12-13T09:52:44.303Z,21.93
2018-12-13T09:55:13.292Z,24.20
2018-12-13T09:57:41.744Z,21.87
2018-12-13T10:00:10.829Z,23.10
2018-12-13T10:02:39.192Z,23.20
2018-12-13T10:05:07.576Z,22.07
2018-12-13T10:07:35.935Z,23.63
2018-12-13T10:10:04.735Z,22.87
2018-12-13T10:12:33.123Z,25.10
2018-12-13T10:15:01.497Z,24.80
2018-12-13T10:17:29.860Z,22.60
2018-12-13T10:19:58.223Z,25.83
2018-12-13T10:22:26.609Z,23.33
2018-12-13T10:24:55.099Z,26.17
2018-12-13T10:27:23.580Z,26.47
2018-12-13T10:29:51.927Z,29.63
2018-12-13T10:32:20.323Z,26.30
2018-12-13T10:34:48.677Z,23.90
2018-12-13T10:37:17.056Z,25.20
2018-12-13T10:39:45.419Z,27.87
2018-12-13T10:42:13.808Z,23.80
2018-12-13T10:44:42.500Z,26.70
2018-12-13T10:47:10.874Z,26.30
2018-12-13T10:49:39.229Z,24.33
2018-12-13T10:52:07.628Z,29.80
2018-12-13T10:54:35.996Z,27.93
2018-12-13T10:57:04.361Z,24.93
2018-12-13T10:59:32.708Z,27.57
2018-12-13T11:02:02.513Z,27.67
2018-12-13T11:04:31.009Z,26.97
2018-12-13T11:06:59.395Z,29.27
2018-12-13T11:09:27.752Z,25.40
2018-12-13T11:11:56.138Z,24.60
2018-12-13T11:14:24.507Z,26.70
2018-12-13T11:16:52.901Z,26.40
2018-12-13T11:19:21.261Z,30.43
2018-12-13T11:21:49.661Z,23.43
2018-12-13T11:24:18.021Z,26.80
2018-12-13T11:26:46.426Z,27.83
2018-12-13T11:29:26.041Z,31.63
2018-12-13T11:31:54.463Z,28.77
2018-12-13T11:34:22.831Z,28.80
2018-12-13T11:36:51.227Z,29.30
2018-12-13T11:39:19.616Z,28.60
2018-12-13T11:41:48.009Z,29.03
2018-12-13T11:44:16.400Z,29.60
2018-12-13T11:46:44.902Z,30.83
2018-12-13T11:49:13.299Z,27.10
2018-12-13T11:51:41.714Z,24.13
2018-12-13T11:54:44.172Z,32.50
2018-12-13T11:57:12.808Z,30.77
2018-12-13T11:59:41.205Z,30.50
2018-12-13T12:02:09.616Z,31.30
2018-12-13T12:04:38.016Z,33.33
2018-12-13T12:07:06.535Z,29.97
2018-12-13T12:09:34.924Z,31.40
2018-12-13T12:12:03.472Z,34.40
2018-12-13T12:14:31.864Z,23.60
2018-12-13T12:17:00.270Z,26.67
2018-12-13T12:19:28.669Z,29.83
2018-12-13T12:21:57.067Z,24.43
2018-12-13T12:24:25.444Z,28.17
2018-12-13T12:26:53.838Z,30.87
2018-12-13T12:29:22.216Z,34.30
2018-12-13T12:31:50.611Z,29.63
2018-12-13T12:34:19.005Z,26.47
2018-12-13T12:36:47.403Z,34.40
2018-12-13T12:39:18.582Z,30.97
2018-12-13T12:41:46.197Z,29.40
2018-12-13T12:44:14.601Z,26.97
2018-12-13T12:46:42.998Z,29.57
2018-12-13T12:49:20.190Z,24.70
2018-12-13T12:51:55.249Z,29.90
2018-12-13T12:54:23.732Z,30.50
2018-12-13T12:56:52.136Z,30.50
2018-12-13T12:59:20.491Z,35.70
2018-12-13T13:01:48.869Z,31.17
2018-12-13T13:04:17.250Z,33.10
2018-12-13T13:06:45.625Z,38.43
2018-12-13T13:09:14.019Z,38.93
2018-12-13T13:11:42.397Z,48.13
2018-12-13T13:14:10.799Z,31.50
2018-12-13T13:16:39.183Z,27.10
2018-12-13T13:19:07.561Z,42.60
2018-12-13T13:21:35.911Z,33.63
2018-12-13T13:24:04.404Z,36.37
2018-12-13T13:26:32.767Z,39.70
2018-12-13T13:29:01.147Z,35.73
2018-12-13T13:31:29.631Z,38.27
2018-12-13T13:33:58.054Z,34.10
2018-12-13T13:36:26.535Z,41.50
2018-12-13T13:38:54.924Z,33.57
2018-12-13T13:41:23.320Z,35.67
2018-12-13T13:43:51.719Z,41.87
2018-12-13T13:46:20.119Z,36.17
2018-12-13T13:48:48.526Z,40.17
2018-12-13T13:51:17.025Z,37.67
2018-12-13T13:53:45.434Z,38.83
2018-12-13T13:56:13.818Z,35.17
2018-12-13T13:58:42.217Z,56.73
2018-12-13T14:01:10.597Z,32.83
2018-12-13T14:03:38.993Z,35.93
2018-12-13T14:06:07.375Z,35.27
2018-12-13T14:08:35.779Z,40.43
2018-12-13T14:11:04.294Z,38.33
2018-12-13T14:13:32.702Z,38.63
2018-12-13T14:16:01.100Z,30.97
2018-12-13T14:18:29.633Z,32.20
2018-12-13T14:20:58.095Z,34.80
2018-12-13T14:23:26.516Z,29.07
2018-12-13T14:25:54.912Z,31.70
2018-12-13T14:28:23.315Z,28.67
2018-12-13T14:30:51.705Z,29.60
2018-12-13T14:33:20.315Z,33.40
2018-12-13T14:35:51.949Z,26.40
2018-12-13T14:38:20.391Z,30.37
2018-12-13T14:40:48.789Z,30.10
2018-12-13T14:43:17.220Z,29.13
2018-12-13T14:45:45.639Z,33.13
2018-12-13T14:48:14.068Z,32.23
2018-12-13T14:50:42.628Z,32.77
2018-12-13T14:53:11.041Z,31.00
2018-12-13T14:55:39.465Z,30.47
2018-12-13T14:58:07.868Z,36.93
2018-12-13T15:00:36.272Z,31.87
2018-12-13T15:03:04.752Z,32.37
2018-12-13T15:05:33.154Z,29.80
2018-12-13T15:08:01.570Z,33.37
2018-12-13T15:10:29.985Z,27.10
2018-12-13T15:12:58.401Z,31.67
2018-12-13T15:15:26.815Z,37.43
2018-12-13T15:17:55.220Z,31.37
2018-12-13T15:20:23.612Z,33.37
2018-12-13T15:22:52.050Z,48.33
2018-12-13T15:25:20.448Z,38.10
2018-12-13T15:27:48.899Z,39.27
2018-12-13T15:30:17.308Z,40.60
2018-12-13T15:32:45.729Z,38.43
2018-12-13T15:35:14.110Z,38.63
2018-12-13T15:37:42.534Z,39.60
2018-12-13T15:40:10.937Z,44.77
2018-12-13T15:42:39.335Z,47.90
2018-12-13T15:45:08.732Z,54.60
2018-12-13T15:47:37.124Z,45.17
2018-12-13T15:50:06.186Z,29.80
2018-12-13T15:52:34.784Z,32.23
2018-12-13T15:55:03.179Z,27.33
2018-12-13T15:57:31.632Z,33.80
2018-12-13T16:00:00.006Z,28.97
2018-12-13T16:02:28.427Z,31.77
2018-12-13T16:04:56.987Z,36.07
2018-12-13T16:07:25.357Z,32.23
2018-12-13T16:09:53.768Z,34.67
2018-12-13T16:12:22.143Z,34.00
2018-12-13T16:14:50.567Z,32.67
2018-12-13T16:17:18.960Z,32.70
2018-12-13T16:19:47.359Z,35.53
2018-12-13T16:22:15.786Z,25.93
2018-12-13T16:24:44.191Z,33.37
2018-12-13T16:27:12.624Z,31.20
2018-12-13T16:29:41.130Z,28.90
2018-12-13T16:32:09.558Z,25.67
2018-12-13T16:34:37.984Z,29.40
2018-12-13T16:37:10.136Z,27.47
2018-12-13T16:39:38.526Z,29.13
2018-12-13T16:42:06.932Z,25.70
2018-12-13T16:44:35.441Z,34.03
2018-12-13T16:47:04.128Z,29.57
2018-12-13T16:49:32.519Z,32.20
2018-12-13T16:52:00.905Z,29.83
2018-12-13T16:54:29.342Z,37.23
2018-12-13T16:56:57.983Z,29.93
2018-12-13T16:59:26.619Z,31.00
2018-12-13T17:01:55.060Z,26.40
2018-12-13T17:04:23.477Z,30.43
2018-12-13T17:06:51.884Z,31.40
2018-12-13T17:09:20.301Z,34.27
2018-12-13T17:11:48.715Z,28.50
2018-12-13T17:14:17.203Z,35.00
2018-12-13T17:16:45.597Z,34.30
2018-12-13T17:19:14.063Z,26.97
2018-12-13T17:21:42.444Z,28.07
2018-12-13T17:24:10.966Z,26.90
2018-12-13T17:26:39.377Z,40.20
2018-12-13T17:29:08.039Z,37.80
2018-12-13T17:31:36.431Z,32.10
2018-12-13T17:34:04.915Z,28.70
2018-12-13T17:36:33.391Z,31.50
2018-12-13T17:39:01.801Z,33.90
2018-12-13T17:41:30.209Z,31.87
2018-12-13T17:43:58.677Z,30.27
2018-12-13T17:46:27.358Z,35.67
2018-12-13T17:48:55.769Z,29.93
2018-12-13T17:51:24.216Z,37.17
2018-12-13T17:53:52.622Z,28.30
2018-12-13T17:56:25.955Z,30.50
2018-12-13T17:58:54.380Z,35.00
2018-12-13T18:01:22.926Z,42.40
2018-12-13T18:03:51.468Z,32.80
2018-12-13T18:06:19.860Z,35.97
2018-12-13T18:08:48.252Z,35.73
2018-12-13T18:11:16.667Z,40.90
2018-12-13T18:13:45.940Z,33.77
2018-12-13T18:16:14.563Z,31.30
2018-12-13T18:18:43.336Z,33.73
2018-12-13T18:21:11.847Z,34.43
2018-12-13T18:23:40.237Z,26.97
2018-12-13T18:26:08.695Z,32.87
2018-12-13T18:28:37.098Z,30.73
2018-12-13T18:31:05.532Z,32.03
2018-12-13T18:33:33.976Z,38.17
2018-12-13T18:36:02.404Z,35.73
2018-12-13T18:38:30.859Z,31.60
2018-12-13T18:40:59.289Z,32.43
2018-12-13T18:43:27.696Z,28.40
2018-12-13T18:45:56.174Z,34.27
2018-12-13T18:48:24.600Z,30.80
2018-12-13T18:50:53.182Z,29.93
2018-12-13T18:53:21.628Z,31.10
2018-12-13T18:55:50.044Z,27.97
2018-12-13T18:58:18.444Z,30.37
2018-12-13T19:00:46.861Z,30.80
2018-12-13T19:03:15.252Z,33.27
2018-12-13T19:05:43.664Z,36.00
2018-12-13T19:08:12.072Z,41.00
2018-12-13T19:10:41.957Z,33.70
2018-12-13T19:13:10.771Z,26.00
2018-12-13T19:15:39.220Z,26.07
2018-12-13T19:18:07.740Z,29.83
2018-12-13T19:20:36.211Z,28.10
2018-12-13T19:23:04.802Z,28.57
2018-12-13T19:25:33.322Z,26.80
2018-12-13T19:28:01.747Z,31.37
2018-12-13T19:30:30.176Z,25.90
2018-12-13T19:32:58.796Z,27.00
2018-12-13T19:35:27.220Z,27.33
2018-12-13T19:37:55.687Z,26.73
2018-12-13T19:40:24.160Z,31.80
2018-12-13T19:42:52.792Z,26.77
2018-12-13T19:45:21.239Z,31.83
2018-12-13T19:47:49.967Z,27.80
2018-12-13T19:50:18.502Z,27.83
2018-12-13T19:52:46.943Z,31.33
2018-12-13T19:55:16.762Z,37.00
2018-12-13T19:57:45.216Z,32.50
2018-12-13T20:00:13.825Z,39.03
2018-12-13T20:02:42.486Z,25.20
2018-12-13T20:05:11.009Z,27.83
2018-12-13T20:07:39.517Z,28.17
2018-12-13T20:10:08.882Z,29.20
2018-12-13T20:12:37.368Z,28.73
2018-12-13T20:15:06.483Z,30.17
2018-12-13T20:17:34.927Z,28.57
2018-12-13T20:20:04.163Z,28.00
2018-12-13T20:22:32.622Z,28.90
2018-12-13T20:25:01.049Z,53.90
2018-12-13T20:27:29.570Z,27.03
2018-12-13T20:29:58.101Z,27.73
2018-12-13T20:32:27.218Z,29.17
2018-12-13T20:34:56.202Z,29.80
2018-12-13T21:27:32.803Z,27.63
2018-12-13T21:30:01.224Z,26.60
2018-12-13T21:32:29.687Z,28.60
2018-12-13T21:35:01.304Z,28.80
2018-12-13T21:37:29.786Z,31.47
2018-12-13T21:39:58.250Z,31.47
2018-12-13T21:42:26.680Z,24.83
2018-12-13T21:44:55.267Z,30.00
2018-12-13T21:47:23.730Z,32.10
2018-12-13T21:49:52.298Z,28.17
2018-12-13T21:52:20.896Z,35.93
2018-12-13T21:54:49.340Z,29.40
2018-12-13T21:57:17.938Z,28.20
2018-12-13T21:59:46.323Z,31.00
2018-12-13T22:02:14.752Z,24.87
2018-12-13T22:04:43.161Z,32.27
2018-12-13T22:07:11.616Z,34.53
2018-12-13T22:15:29.458Z,28.47
2018-12-13T23:11:43.713Z,33.47
2018-12-13T23:14:12.141Z,32.37
2018-12-13T23:31:39.634Z,33.93
2018-12-13T23:34:08.049Z,33.00
2018-12-13T23:36:36.437Z,34.00
2018-12-13T23:39:05.569Z,32.03
